KFHR

Friday Harbor Airport

Friday Harbor, Washington, USA
METAR KFHR 121753Z AUTO 20005KT 9SM FEW040 07/03 A3022 RMK AO2 SLP235 T00720033 10072 20028 53029
Observed Flight Rules
Dec-12 @ 17:53 UTC (55 minutes ago) Visual Flight Rules
Wind Visibility Clouds
200° at 5 knots 9 miles
  • Few at 4,000' AGL
Temperatures Readings
Current 7°C / 45°F
Dewpoint 3°C / 37°F
Humidity 76%
Altimeter 30.22" Hg
Pressure 1023.5 hPa
Elevation 32
METAR KFHR 121753Z AUTO 20005KT 9SM FEW040 07/03 A3022 RMK AO2 SLP235 T00720033 10072 20028 53029
Observed Flight Rules
Dec-12 @ 17:53 UTC
(55 minutes ago)
VFR
Wind Visibility
200° at 5 knots 9 miles
Clouds
  • Few at 4,000' AGL
Temperature Dewpoint
7°C / 45°F 3°C / 37°F
Humidity Altimeter Pressure
76% 30.22" Hg 1023.5 hPa